createdAt,value
2017-06-08T00:02:24.314Z,3.87
2017-06-08T00:04:58.818Z,3.63
2017-06-08T00:07:45.665Z,3.80
2017-06-08T00:10:18.052Z,3.57
2017-06-08T00:12:54.701Z,3.93
2017-06-08T00:15:24.407Z,3.87
2017-06-08T00:18:00.201Z,4.00
2017-06-08T00:22:10.652Z,3.60
2017-06-08T00:24:38.516Z,3.60
2017-06-08T00:27:10.909Z,4.00
2017-06-08T00:29:49.151Z,4.23
2017-06-08T00:32:21.705Z,4.13
2017-06-08T00:35:10.815Z,3.73
2017-06-08T00:37:42.213Z,3.80
2017-06-08T00:40:09.086Z,3.33
2017-06-08T00:42:52.684Z,3.73
2017-06-08T00:45:25.862Z,3.53
2017-06-08T00:48:17.842Z,4.17
2017-06-08T00:50:57.263Z,3.97
2017-06-08T00:53:30.545Z,3.93
2017-06-08T00:56:00.501Z,4.07
2017-06-08T00:58:33.464Z,5.53
2017-06-08T01:01:07.268Z,3.90
2017-06-08T01:03:40.453Z,3.47
2017-06-08T01:06:13.514Z,3.40
2017-06-08T01:08:49.930Z,3.80
2017-06-08T01:11:18.249Z,4.00
2017-06-08T01:13:50.278Z,3.90
2017-06-08T01:19:24.255Z,3.73
2017-06-08T01:21:55.615Z,3.87
2017-06-08T01:24:37.686Z,3.80
2017-06-08T01:30:01.544Z,4.60
2017-06-08T01:32:27.603Z,4.53
2017-06-08T01:34:53.740Z,4.43
2017-06-08T01:37:20.644Z,4.13
2017-06-08T01:39:47.063Z,4.27
2017-06-08T01:42:13.326Z,4.40
2017-06-08T01:44:39.451Z,3.97
2017-06-08T01:47:05.625Z,4.50
2017-06-08T01:49:32.076Z,3.60
2017-06-08T01:51:58.411Z,3.83
2017-06-08T01:54:24.712Z,4.07
2017-06-08T01:56:58.040Z,4.10
2017-06-08T01:59:30.978Z,4.10
2017-06-08T02:02:03.311Z,4.20
2017-06-08T02:04:43.160Z,4.20
2017-06-08T02:07:26.466Z,4.57
2017-06-08T02:09:54.335Z,4.13
2017-06-08T02:12:20.552Z,5.13
2017-06-08T02:14:47.016Z,4.03
2017-06-08T02:17:14.009Z,4.10
2017-06-08T02:19:40.152Z,4.80
2017-06-08T02:22:09.995Z,4.73
2017-06-08T02:24:44.714Z,4.50
2017-06-08T02:27:13.564Z,4.40
2017-06-08T02:29:47.475Z,4.73
2017-06-08T02:32:15.450Z,5.10
2017-06-08T02:34:45.253Z,4.70
2017-06-08T02:37:23.591Z,4.67
2017-06-08T02:40:14.520Z,4.90
2017-06-08T02:42:40.572Z,4.23
2017-06-08T02:45:07.662Z,4.67
2017-06-08T02:47:33.813Z,4.60
2017-06-08T02:50:00.007Z,4.63
2017-06-08T02:58:14.557Z,3.70
2017-06-08T03:00:40.822Z,4.53
2017-06-08T03:03:07.571Z,4.40
2017-06-08T03:05:34.241Z,4.53
2017-06-08T03:08:00.441Z,4.53
2017-06-08T03:10:26.562Z,4.17
2017-06-08T03:12:53.005Z,4.43
2017-06-08T03:15:19.424Z,4.00
2017-06-08T03:17:48.957Z,4.47
2017-06-08T03:20:22.869Z,4.30
2017-06-08T03:25:42.134Z,4.93
2017-06-08T03:28:22.744Z,5.30
2017-06-08T03:31:02.836Z,4.40
2017-06-08T03:33:37.276Z,5.20
2017-06-08T03:36:25.418Z,5.13
2017-06-08T03:38:58.560Z,4.40
2017-06-08T03:41:34.456Z,4.60
2017-06-08T03:44:14.119Z,3.90
2017-06-08T03:49:45.785Z,5.27
2017-06-08T03:55:11.605Z,5.00
2017-06-08T04:00:37.058Z,4.63
2017-06-08T04:03:13.709Z,4.20
2017-06-08T04:05:57.003Z,4.93
2017-06-08T04:08:34.199Z,4.67
2017-06-08T04:11:10.840Z,4.60
2017-06-08T04:13:46.217Z,5.53
2017-06-08T04:16:17.456Z,4.33
2017-06-08T04:18:50.960Z,5.13
2017-06-08T04:21:26.510Z,4.40
2017-06-08T04:24:14.011Z,4.50
2017-06-08T04:29:32.882Z,4.50
2017-06-08T04:32:11.257Z,4.77
2017-06-08T04:34:39.369Z,6.33
2017-06-08T04:37:16.310Z,4.30
2017-06-08T04:42:37.539Z,4.73
2017-06-08T04:45:08.783Z,5.20
2017-06-08T04:47:39.850Z,5.00
2017-06-08T04:50:05.924Z,5.00
2017-06-08T04:52:45.752Z,5.07
2017-06-08T04:55:18.559Z,4.77
2017-06-08T04:57:51.277Z,5.57
2017-06-08T05:00:31.525Z,4.90
2017-06-08T05:03:05.292Z,5.10
2017-06-08T05:05:39.229Z,4.93
2017-06-08T05:08:23.234Z,4.73
2017-06-08T05:13:53.820Z,4.13
2017-06-08T05:16:41.603Z,5.30
2017-06-08T05:19:28.061Z,4.87
2017-06-08T05:22:03.054Z,4.90
2017-06-08T05:24:37.739Z,5.10
2017-06-08T05:27:10.122Z,4.50
2017-06-08T05:29:42.527Z,4.67
2017-06-08T05:32:16.971Z,5.10
2017-06-08T05:34:49.642Z,5.27
2017-06-08T05:37:33.349Z,4.73
2017-06-08T05:40:11.536Z,5.03
2017-06-08T05:42:45.823Z,4.80
2017-06-08T05:48:11.558Z,4.93
2017-06-08T05:50:49.393Z,5.17
2017-06-08T05:53:28.514Z,5.07
2017-06-08T05:55:58.323Z,5.40
2017-06-08T05:58:36.471Z,4.80
2017-06-08T06:04:05.138Z,5.13
2017-06-08T06:06:34.299Z,6.10
2017-06-08T06:09:07.313Z,4.87
2017-06-08T06:11:46.767Z,5.50
2017-06-08T06:14:19.375Z,5.73
2017-06-08T06:16:55.187Z,4.80
2017-06-08T06:19:29.414Z,5.37
2017-06-08T06:21:59.457Z,5.13
2017-06-08T06:24:34.818Z,5.20
2017-06-08T06:27:18.284Z,5.00
2017-06-08T06:30:05.660Z,4.70
2017-06-08T06:35:35.152Z,5.10
2017-06-08T06:41:06.872Z,4.80
2017-06-08T06:43:43.532Z,4.87
2017-06-08T06:46:19.086Z,4.80
2017-06-08T06:49:01.962Z,5.07
2017-06-08T06:51:32.473Z,4.77
2017-06-08T06:53:58.616Z,5.50
2017-06-08T06:56:35.375Z,4.80
2017-06-08T07:01:38.579Z,4.37
2017-06-08T07:04:14.865Z,4.20
2017-06-08T07:09:33.622Z,4.37
2017-06-08T07:12:11.086Z,5.00
2017-06-08T07:14:40.739Z,4.17
2017-06-08T07:20:05.337Z,3.87
2017-06-08T07:22:37.812Z,4.60
2017-06-08T07:25:24.116Z,3.83
2017-06-08T07:27:53.951Z,3.67
2017-06-08T07:30:38.516Z,3.90
2017-06-08T07:39:04.061Z,3.43
2017-06-08T07:41:38.876Z,4.20
2017-06-08T07:46:59.419Z,3.13
2017-06-08T07:49:28.540Z,3.57
2017-06-08T07:51:56.220Z,3.17
2017-06-08T07:54:22.667Z,3.20
2017-06-08T07:56:54.593Z,3.20
2017-06-08T07:59:23.434Z,3.77
2017-06-08T08:04:46.256Z,3.60
2017-06-08T08:10:11.947Z,3.20
2017-06-08T08:12:39.166Z,3.13
2017-06-08T08:15:05.205Z,2.87
2017-06-08T08:17:31.225Z,4.33
2017-06-08T08:19:57.263Z,3.40
2017-06-08T08:22:23.259Z,3.30
2017-06-08T08:24:49.294Z,3.30
2017-06-08T08:27:17.027Z,3.57
2017-06-08T08:29:43.276Z,4.00
2017-06-08T08:32:09.280Z,3.30
2017-06-08T08:34:36.079Z,3.83
2017-06-08T08:37:02.714Z,3.30
2017-06-08T08:39:29.677Z,3.70
2017-06-08T08:41:55.901Z,3.60
2017-06-08T08:44:23.314Z,3.43
2017-06-08T08:46:50.684Z,3.87
2017-06-08T08:51:58.549Z,4.10
2017-06-08T08:54:28.348Z,4.17
2017-06-08T08:57:15.826Z,3.20
2017-06-08T08:59:42.863Z,3.67
2017-06-08T09:02:12.164Z,3.60
2017-06-08T09:04:38.502Z,3.60
2017-06-08T09:07:04.796Z,4.30
2017-06-08T09:09:31.854Z,4.27
2017-06-08T09:12:01.417Z,3.80
2017-06-08T09:14:27.489Z,3.67
2017-06-08T09:17:05.576Z,4.60
2017-06-08T09:19:32.351Z,4.70
2017-06-08T09:21:58.603Z,3.97
2017-06-08T09:24:24.681Z,3.50
2017-06-08T09:26:50.789Z,3.87
2017-06-08T09:29:16.830Z,4.40
2017-06-08T09:34:14.030Z,4.10
2017-06-08T09:36:41.573Z,4.20
2017-06-08T09:39:10.832Z,3.50
2017-06-08T09:41:41.276Z,3.83
2017-06-08T09:44:07.400Z,3.90
2017-06-08T09:46:33.423Z,3.70
2017-06-08T09:48:59.796Z,3.80
2017-06-08T09:51:25.867Z,4.20
2017-06-08T09:53:52.031Z,4.10
2017-06-08T09:56:18.060Z,3.40
2017-06-08T09:58:44.063Z,4.00
2017-06-08T10:01:10.702Z,3.10
2017-06-08T10:03:38.599Z,3.57
2017-06-08T10:06:04.606Z,3.57
2017-06-08T10:08:31.881Z,4.80
2017-06-08T10:11:01.431Z,3.97
2017-06-08T10:13:27.918Z,3.87
2017-06-08T10:15:53.998Z,3.73
2017-06-08T10:18:26.406Z,3.60
2017-06-08T10:20:52.490Z,4.37
2017-06-08T10:23:21.027Z,3.73
2017-06-08T10:25:48.726Z,3.30
2017-06-08T10:28:14.737Z,3.50
2017-06-08T10:30:41.847Z,3.60
2017-06-08T10:33:10.489Z,3.27
2017-06-08T10:35:37.342Z,3.80
2017-06-08T10:38:04.298Z,4.07
2017-06-08T10:40:30.338Z,3.83
2017-06-08T10:42:56.417Z,3.63
2017-06-08T10:45:23.295Z,3.50
2017-06-08T10:47:49.952Z,3.40
2017-06-08T10:50:16.551Z,3.13
2017-06-08T10:52:44.654Z,3.63
2017-06-08T10:55:10.737Z,3.70
2017-06-08T10:57:37.779Z,3.57
2017-06-08T11:00:08.055Z,3.73
2017-06-08T11:02:34.624Z,3.70
2017-06-08T11:05:01.371Z,3.40
2017-06-08T11:07:29.078Z,3.57
2017-06-08T11:09:56.023Z,3.60
2017-06-08T11:12:22.867Z,3.80
2017-06-08T11:14:49.663Z,3.53
2017-06-08T11:17:16.923Z,3.33
2017-06-08T11:19:43.338Z,3.70
2017-06-08T11:22:09.310Z,3.13
2017-06-08T11:24:37.045Z,3.23
2017-06-08T11:27:03.788Z,2.83
2017-06-08T11:29:29.891Z,3.50
2017-06-08T11:31:57.660Z,3.27
2017-06-08T11:34:23.974Z,3.10
2017-06-08T11:36:50.016Z,3.30
2017-06-08T11:39:16.097Z,3.53
2017-06-08T11:41:42.992Z,4.40
2017-06-08T11:44:10.729Z,3.13
2017-06-08T11:46:36.823Z,2.90
2017-06-08T11:49:03.712Z,3.20
2017-06-08T11:51:30.573Z,2.60
2017-06-08T11:53:58.627Z,3.07
2017-06-08T11:56:26.805Z,3.43
2017-06-08T11:58:54.122Z,3.40
2017-06-08T12:01:21.934Z,3.23
2017-06-08T12:03:49.668Z,4.00
2017-06-08T12:06:15.727Z,3.20
2017-06-08T12:08:43.545Z,3.37
2017-06-08T12:11:09.642Z,3.90
2017-06-08T12:13:40.173Z,3.33
2017-06-08T12:16:07.323Z,3.33
2017-06-08T12:18:33.348Z,3.43
2017-06-08T12:21:01.370Z,3.77
2017-06-08T12:23:30.722Z,2.87
2017-06-08T12:25:59.715Z,3.20
2017-06-08T12:28:26.648Z,3.10
2017-06-08T12:30:52.927Z,3.90
2017-06-08T12:33:19.093Z,3.67
2017-06-08T12:35:46.189Z,2.97
2017-06-08T12:38:13.289Z,3.23
2017-06-08T12:40:41.491Z,3.37
2017-06-08T12:43:13.260Z,11.23
2017-06-08T12:45:40.265Z,3.53
2017-06-08T12:48:07.214Z,3.23
2017-06-08T12:50:34.119Z,2.83
2017-06-08T12:53:00.167Z,2.73
2017-06-08T12:55:26.244Z,3.53
2017-06-08T12:57:52.982Z,2.90
2017-06-08T13:00:19.361Z,3.27
2017-06-08T13:02:46.209Z,3.33
2017-06-08T13:05:12.636Z,2.90
2017-06-08T13:07:39.500Z,3.27
2017-06-08T13:10:05.562Z,3.00
2017-06-08T13:12:33.152Z,3.10
2017-06-08T13:15:01.178Z,3.03
2017-06-08T13:17:28.799Z,2.83
2017-06-08T13:19:58.590Z,3.20
2017-06-08T13:22:25.466Z,3.30
2017-06-08T13:24:52.099Z,4.57
2017-06-08T13:27:18.623Z,3.10
2017-06-08T13:29:46.186Z,4.07
2017-06-08T13:32:13.044Z,3.50
2017-06-08T13:34:39.091Z,2.53
2017-06-08T13:39:41.132Z,2.47
2017-06-08T13:42:07.745Z,2.70
2017-06-08T13:44:36.804Z,3.17
2017-06-08T13:49:36.899Z,3.10
2017-06-08T13:52:03.573Z,2.50
2017-06-08T13:54:31.128Z,2.70
2017-06-08T13:57:04.734Z,3.00
2017-06-08T13:59:32.468Z,2.73
2017-06-08T14:02:02.716Z,3.00
2017-06-08T14:04:30.103Z,2.80
2017-06-08T14:09:29.490Z,2.87
2017-06-08T14:11:59.387Z,2.97
2017-06-08T14:14:32.197Z,2.50
2017-06-08T14:16:58.486Z,2.97
2017-06-08T14:21:58.307Z,3.67
2017-06-08T14:24:25.280Z,2.63
2017-06-08T14:26:56.838Z,2.70
2017-06-08T14:29:28.049Z,3.60
2017-06-08T14:31:54.077Z,2.70
2017-06-08T14:34:22.527Z,3.40
2017-06-08T14:39:24.125Z,3.20
2017-06-08T14:41:50.168Z,3.00
2017-06-08T14:44:18.888Z,2.60
2017-06-08T14:46:46.388Z,3.07
2017-06-08T14:49:14.115Z,2.70
2017-06-08T14:51:42.817Z,2.50
2017-06-08T14:54:27.512Z,2.90
2017-06-08T14:56:57.238Z,3.00
2017-06-08T14:59:26.760Z,2.63
2017-06-08T15:01:55.145Z,3.00
2017-06-08T15:04:23.411Z,2.57
2017-06-08T15:06:50.921Z,2.80
2017-06-08T15:09:22.921Z,2.77
2017-06-08T15:11:56.280Z,2.53
2017-06-08T15:19:39.358Z,2.93
2017-06-08T15:22:12.552Z,2.50
2017-06-08T15:24:41.076Z,3.20
2017-06-08T15:27:08.873Z,3.07
2017-06-08T15:29:36.859Z,3.40
2017-06-08T15:32:11.281Z,3.13
2017-06-08T15:34:43.519Z,3.40
2017-06-08T15:37:17.865Z,2.93
2017-06-08T15:39:45.185Z,2.47
2017-06-08T15:42:17.821Z,2.50
2017-06-08T15:44:52.237Z,3.40
2017-06-08T15:47:24.858Z,2.37
2017-06-08T15:50:00.187Z,2.43
2017-06-08T15:52:32.555Z,2.27
2017-06-08T15:55:04.304Z,2.47
2017-06-08T15:57:33.321Z,2.50
2017-06-08T16:00:04.240Z,2.40
2017-06-08T16:02:31.437Z,2.53
2017-06-08T16:04:59.167Z,3.17
2017-06-08T16:07:27.682Z,2.60
2017-06-08T16:09:55.117Z,4.00
2017-06-08T16:12:32.023Z,3.73
2017-06-08T16:15:05.253Z,4.83
2017-06-08T16:17:33.407Z,2.97
2017-06-08T16:22:53.409Z,4.90
2017-06-08T16:25:20.527Z,3.07
2017-06-08T16:27:50.176Z,3.10
2017-06-08T16:32:50.963Z,3.20
2017-06-08T16:35:17.808Z,3.43
2017-06-08T16:37:45.379Z,4.00
2017-06-08T16:40:13.133Z,3.20
2017-06-08T16:42:41.336Z,3.17
2017-06-08T16:45:09.780Z,3.50
2017-06-08T16:47:36.821Z,5.27
2017-06-08T16:50:04.334Z,3.00
2017-06-08T16:52:31.904Z,3.53
2017-06-08T16:54:58.321Z,2.93
2017-06-08T16:57:28.636Z,2.90
2017-06-08T16:59:55.725Z,2.90
2017-06-08T17:05:04.279Z,3.37
2017-06-08T17:07:32.882Z,3.20
2017-06-08T17:09:59.935Z,2.77
2017-06-08T17:12:31.754Z,2.80
2017-06-08T17:17:41.002Z,3.40
2017-06-08T17:20:07.833Z,3.30
2017-06-08T17:22:35.696Z,3.10
2017-06-08T17:25:13.143Z,3.80
2017-06-08T17:27:42.731Z,3.27
2017-06-08T17:30:10.985Z,3.67
2017-06-08T17:32:37.878Z,5.10
2017-06-08T17:35:05.071Z,3.53
2017-06-08T17:37:33.584Z,4.00
2017-06-08T17:40:00.334Z,3.47
2017-06-08T17:42:29.837Z,3.50
2017-06-08T17:45:00.376Z,3.20
2017-06-08T17:47:27.059Z,3.20
2017-06-08T17:49:54.678Z,2.90
2017-06-08T17:54:58.690Z,4.57
2017-06-08T17:57:28.760Z,3.27
2017-06-08T17:59:58.496Z,3.20
2017-06-08T18:02:29.620Z,2.87
2017-06-08T18:04:58.485Z,3.03
2017-06-08T18:07:30.405Z,2.90
2017-06-08T18:09:58.253Z,3.43
2017-06-08T18:12:26.920Z,3.10
2017-06-08T18:15:01.671Z,3.37
2017-06-08T18:17:33.432Z,2.80
2017-06-08T18:20:02.294Z,3.00
2017-06-08T18:22:33.883Z,3.00
2017-06-08T18:25:00.763Z,3.73
2017-06-08T18:27:29.789Z,4.30
2017-06-08T18:32:28.824Z,4.43
2017-06-08T18:34:55.214Z,3.87
2017-06-08T18:37:21.248Z,2.83
2017-06-08T18:39:47.243Z,2.87
2017-06-08T18:42:13.280Z,3.13
2017-06-08T18:44:39.324Z,3.40
2017-06-08T18:47:05.430Z,5.20
2017-06-08T18:49:31.402Z,3.60
2017-06-08T18:51:57.561Z,3.77
2017-06-08T18:54:25.481Z,3.50
2017-06-08T18:59:47.146Z,3.37
2017-06-08T19:08:17.435Z,4.10
2017-06-08T19:13:35.616Z,4.07
2017-06-08T19:16:02.711Z,4.57
2017-06-08T19:18:29.838Z,4.00
2017-06-08T19:23:51.995Z,4.00
2017-06-08T19:26:19.721Z,4.50
2017-06-08T19:29:06.618Z,4.90
2017-06-08T19:31:50.581Z,5.70
2017-06-08T19:34:22.673Z,5.23
2017-06-08T19:39:45.386Z,5.90
2017-06-08T19:42:16.041Z,5.73
2017-06-08T19:44:46.522Z,4.77
2017-06-08T19:47:16.324Z,5.00
2017-06-08T19:49:42.436Z,5.23
2017-06-08T19:52:08.625Z,6.77
2017-06-08T19:54:35.245Z,5.20
2017-06-08T19:57:01.847Z,5.67
2017-06-08T19:59:28.271Z,5.00
2017-06-08T20:01:55.639Z,5.70
2017-06-08T20:04:22.538Z,5.70
2017-06-08T20:06:50.658Z,5.30
2017-06-08T20:09:16.764Z,5.83
2017-06-08T20:11:43.955Z,5.60
2017-06-08T20:17:06.645Z,4.90
2017-06-08T20:19:35.875Z,4.43
2017-06-08T20:22:03.621Z,4.87
2017-06-08T20:24:29.631Z,5.63
2017-06-08T20:26:55.645Z,4.33
2017-06-08T20:29:21.705Z,4.80
2017-06-08T20:31:47.811Z,4.80
2017-06-08T20:34:14.644Z,4.70
2017-06-08T20:36:41.002Z,5.00
2017-06-08T20:39:06.996Z,4.57
2017-06-08T20:41:34.018Z,5.27
2017-06-08T20:44:00.270Z,5.00
2017-06-08T20:46:29.469Z,4.80
2017-06-08T20:48:55.541Z,5.20
2017-06-08T20:54:16.971Z,5.03
2017-06-08T20:56:43.169Z,4.73
2017-06-08T20:59:11.660Z,4.60
2017-06-08T21:01:49.135Z,4.90
2017-06-08T21:06:48.971Z,5.63
2017-06-08T21:09:35.203Z,5.10
2017-06-08T21:12:01.930Z,4.83
2017-06-08T21:14:28.529Z,5.03
2017-06-08T21:16:54.845Z,5.07
2017-06-08T21:19:24.327Z,5.57
2017-06-08T21:21:52.625Z,5.30
2017-06-08T21:24:19.169Z,5.03
2017-06-08T21:26:45.638Z,5.93
2017-06-08T21:29:13.242Z,4.73
2017-06-08T21:31:39.260Z,4.77
2017-06-08T21:34:05.978Z,4.70
2017-06-08T21:36:32.010Z,4.53
2017-06-08T21:38:58.087Z,5.50
2017-06-08T21:41:24.108Z,5.00
2017-06-08T21:43:50.122Z,5.23
2017-06-08T21:46:16.268Z,5.27
2017-06-08T21:48:44.771Z,4.93
2017-06-08T21:51:11.737Z,4.50
2017-06-08T21:53:37.765Z,4.40
2017-06-08T21:56:04.343Z,4.80
2017-06-08T21:58:30.681Z,4.90
2017-06-08T22:01:07.665Z,4.97
2017-06-08T22:09:02.852Z,6.10
2017-06-08T22:11:28.822Z,5.23
2017-06-08T22:13:55.368Z,5.20
2017-06-08T22:16:21.391Z,5.20
2017-06-08T22:18:47.410Z,5.60
2017-06-08T22:21:13.417Z,5.57
2017-06-08T22:23:39.412Z,5.40
2017-06-08T22:26:05.363Z,6.40
2017-06-08T22:28:31.335Z,6.50
2017-06-08T22:30:57.936Z,6.17
2017-06-08T22:33:23.962Z,6.13
2017-06-08T22:35:49.914Z,7.53
2017-06-08T22:38:15.949Z,6.47
2017-06-08T22:40:41.987Z,7.10
2017-06-08T22:43:07.992Z,6.83
2017-06-08T22:45:34.007Z,7.50
2017-06-08T22:48:06.795Z,6.83
2017-06-08T22:50:32.838Z,7.10
2017-06-08T22:52:59.100Z,7.60
2017-06-08T22:55:25.981Z,7.30
2017-06-08T22:57:52.548Z,7.10
2017-06-08T23:00:19.317Z,7.20
2017-06-08T23:02:45.312Z,7.50
2017-06-08T23:05:11.716Z,7.40
2017-06-08T23:07:37.724Z,7.53
2017-06-08T23:10:04.707Z,7.97
2017-06-08T23:12:30.709Z,7.13
2017-06-08T23:14:56.938Z,7.60
2017-06-08T23:17:23.227Z,7.47
2017-06-08T23:19:49.471Z,7.13
2017-06-08T23:22:15.499Z,7.07
2017-06-08T23:24:41.485Z,7.73
2017-06-08T23:27:07.439Z,7.03
2017-06-08T23:29:33.403Z,7.10
2017-06-08T23:31:59.405Z,7.10
2017-06-08T23:34:25.387Z,6.23
2017-06-08T23:36:51.447Z,7.60
2017-06-08T23:39:17.481Z,6.63
2017-06-08T23:41:43.515Z,7.40
2017-06-08T23:44:09.540Z,7.07
2017-06-08T23:46:35.567Z,6.30
2017-06-08T23:49:01.570Z,7.30
2017-06-08T23:51:27.581Z,7.00
2017-06-08T23:53:53.613Z,6.67
2017-06-08T23:56:19.643Z,6.93
2017-06-08T23:58:45.647Z,6.73
